KEVV/EVV METAR and TAF weather

Enter ICAO airport designator
Station Type Date Time Source
KEVV METAR 2020/11/28 19:54 UTC NOAA

KEVV 281954Z 00000KT 10SM CLR 11/M04 A3022 RMK AO2 SLP234 T01111044


Station Type Date Time Source
KEVV Decoded METAR 2020/11/28 19:54 UTC NOAA

EVANSVILLE REGIONAL, IN, United States (KEVV) 38-02N 087-32W 117M
Nov 28, 2020 - 02:54 PM EST / 2020.11.28 1954 UTC
Wind: Calm:0
Visibility: 10 mile(s):0
Sky conditions: clear
Temperature: 52.0 F (11.1 C)
Dew Point: 24.1 F (-4.4 C)
Relative Humidity: 33%
Pressure (altimeter): 30.22 in. Hg (1023 hPa)
ob: KEVV 281954Z 00000KT 10SM CLR 11/M04 A3022 RMK AO2 SLP234 T01111044
cycle: 20

Station Type Date Time Source
KEVV TAF 2020/11/28 18:30 UTC NOAA

TAF KEVV 281727Z 2818/2918 VRB03KT P6SM SKC
FM291300 09003KT P6SM BKN200

Example: see airport list